Time;durP1;ratioP1;P1;durP2;ratioP2;P2;SDS_P1;SDS_P2;PMS_P1;PMS_P2;Temp;Humidity;BMP_temperature;BMP_pressure;BME280_temperature;BME280_humidity;BME280_pressure;Samples;Min_cycle;Max_cycle;Signal;HPM_P1;HPM_P2
2021/01/27 00:00:24;;;;;;;6.67;3.80;;;3.40;1.00;;;;;;5095788;28;20410;-69
2021/01/27 00:02:50;;;;;;;6.30;4.00;;;3.30;1.00;;;;;;5095538;28;20183;-68
2021/01/27 00:05:19;;;;;;;9.07;3.37;;;3.20;1.00;;;;;;5095762;28;20175;-69
2021/01/27 00:07:45;;;;;;;7.57;4.05;;;3.20;1.00;;;;;;5095435;28;20273;-68
2021/01/27 00:10:11;;;;;;;7.40;4.07;;;3.30;1.00;;;;;;5095224;28;20270;-68
2021/01/27 00:12:37;;;;;;;7.38;4.32;;;3.30;1.00;;;;;;5095668;28;20380;-68
2021/01/27 00:15:12;;;;;;;5.70;4.00;;;3.30;1.00;;;;;;5094684;28;20164;-68
2021/01/27 00:17:38;;;;;;;4.63;3.83;;;3.20;1.00;;;;;;5093938;28;20167;-68
2021/01/27 00:20:07;;;;;;;7.30;3.83;;;3.20;1.00;;;;;;5095463;28;20203;-68
2021/01/27 00:22:32;;;;;;;10.48;5.07;;;3.30;1.00;;;;;;5095390;28;20171;-68
2021/01/27 00:24:58;;;;;;;4.37;3.57;;;3.20;1.00;;;;;;5095140;28;20493;-68
2021/01/27 00:27:23;;;;;;;6.23;4.83;;;3.20;1.00;;;;;;5095086;28;20644;-68
2021/01/27 00:29:49;;;;;;;4.20;3.77;;;3.10;1.00;;;;;;5094933;28;20225;-67
2021/01/27 00:32:14;;;;;;;7.30;3.90;;;3.20;1.00;;;;;;5094999;28;20226;-67
2021/01/27 00:34:40;;;;;;;10.90;4.70;;;3.20;1.00;;;;;;5093654;28;20164;-68
2021/01/27 00:37:05;;;;;;;5.63;4.00;;;3.20;1.00;;;;;;5095172;28;20207;-68
2021/01/27 00:39:31;;;;;;;4.20;3.70;;;3.10;1.00;;;;;;5095253;28;20194;-68
2021/01/27 00:41:57;;;;;;;8.00;4.00;;;3.10;1.00;;;;;;5094745;28;20168;-68
2021/01/27 00:44:23;;;;;;;6.90;4.27;;;3.20;1.00;;;;;;5095008;28;20163;-68
2021/01/27 00:46:48;;;;;;;4.17;3.77;;;3.20;1.00;;;;;;5094940;28;20532;-68
2021/01/27 00:49:14;;;;;;;6.63;4.30;;;3.10;1.00;;;;;;5094489;28;20199;-68
2021/01/27 00:51:39;;;;;;;4.93;4.00;;;3.10;1.00;;;;;;5094577;28;20640;-68
2021/01/27 00:54:05;;;;;;;5.93;4.10;;;3.10;1.00;;;;;;5094557;28;20543;-68
2021/01/27 00:56:30;;;;;;;5.27;4.30;;;3.20;1.00;;;;;;5095060;28;20183;-66
2021/01/27 00:58:56;;;;;;;6.70;4.27;;;2.90;1.00;;;;;;5094482;28;20320;-68
2021/01/27 01:01:21;;;;;;;4.27;3.87;;;3.00;1.00;;;;;;5094646;28;20594;-69
2021/01/27 01:03:47;;;;;;;7.97;3.70;;;3.00;1.00;;;;;;5094411;28;20517;-68
2021/01/27 01:06:13;;;;;;;7.70;4.30;;;3.00;1.00;;;;;;5094511;28;20186;-68
2021/01/27 01:08:38;;;;;;;5.20;3.70;;;3.00;1.00;;;;;;5094098;28;20667;-68
2021/01/27 01:11:04;;;;;;;5.07;3.93;;;3.00;1.00;;;;;;5094456;28;20188;-68
2021/01/27 01:13:31;;;;;;;4.43;3.80;;;3.10;1.00;;;;;;5094185;28;20167;-68
2021/01/27 01:15:57;;;;;;;5.43;3.85;;;3.00;1.00;;;;;;5094159;28;20632;-68
2021/01/27 01:18:23;;;;;;;12.57;4.47;;;3.10;1.00;;;;;;5094400;28;20178;-67
2021/01/27 01:20:49;;;;;;;8.20;5.30;;;3.10;1.00;;;;;;5094582;28;20270;-68
2021/01/27 01:23:17;;;;;;;6.97;4.13;;;2.90;1.00;;;;;;5094286;28;20201;-68
2021/01/27 01:25:42;;;;;;;8.55;4.30;;;2.90;1.00;;;;;;5092941;28;20171;-67
2021/01/27 01:28:08;;;;;;;6.33;4.53;;;2.80;1.00;;;;;;5093909;28;20179;-68
2021/01/27 01:30:40;;;;;;;6.85;4.32;;;3.00;1.00;;;;;;5093980;28;20203;-67
2021/01/27 01:33:12;;;;;;;9.93;5.60;;;3.00;1.00;;;;;;5094176;28;20512;-68
2021/01/27 01:35:38;;;;;;;5.15;4.28;;;2.90;1.00;;;;;;5094021;28;20216;-68
2021/01/27 01:38:04;;;;;;;6.68;4.03;;;2.90;1.00;;;;;;5092565;28;20164;-68
2021/01/27 01:40:36;;;;;;;5.60;4.23;;;3.00;1.00;;;;;;5094165;28;20564;-67
2021/01/27 01:43:17;;;;;;;8.10;4.18;;;3.00;1.00;;;;;;5093692;28;20936;-68
2021/01/27 01:45:49;;;;;;;8.32;4.47;;;3.00;1.00;;;;;;5096711;28;20195;-68
2021/01/27 01:48:33;;;;;;;9.15;5.50;;;3.10;1.00;;;;;;5100902;28;20175;-68
2021/01/27 01:51:21;;;;;;;7.47;4.05;;;3.00;1.00;;;;;;5101443;28;20190;-68
2021/01/27 01:53:50;;;;;;;8.60;3.95;;;3.10;1.00;;;;;;5101928;28;20167;-68
2021/01/27 01:56:18;;;;;;;5.97;4.40;;;3.10;1.00;;;;;;5101574;28;20236;-68
2021/01/27 01:58:44;;;;;;;5.18;3.72;;;3.00;1.00;;;;;;5099636;28;20167;-68
2021/01/27 02:01:10;;;;;;;11.37;4.90;;;3.10;1.00;;;;;;5093368;28;20225;-68
2021/01/27 02:03:37;;;;;;;6.70;4.70;;;3.00;1.00;;;;;;5093345;28;20449;-68
2021/01/27 02:06:08;;;;;;;6.45;4.78;;;3.00;1.00;;;;;;5093295;28;20401;-68
2021/01/27 02:08:37;;;;;;;9.05;4.80;;;3.00;1.00;;;;;;5093010;28;20211;-68
2021/01/27 02:11:03;;;;;;;7.00;4.05;;;3.10;1.00;;;;;;5093177;28;20179;-68
2021/01/27 02:14:06;;;;;;;5.07;4.53;;;3.00;1.00;;;;;;5093308;28;20617;-68
2021/01/27 02:16:55;;;;;;;4.95;4.03;;;2.90;1.00;;;;;;5093370;28;20462;-68
2021/01/27 02:19:56;;;;;;;5.75;3.95;;;2.90;1.00;;;;;;5093207;28;20550;-69
2021/01/27 02:22:24;;;;;;;8.88;4.70;;;2.80;1.00;;;;;;5060558;28;20206;-69
2021/01/27 02:25:33;;;;;;;5.18;4.43;;;2.90;1.00;;;;;;5093078;28;20171;-69
2021/01/27 02:28:03;;;;;;;6.85;4.30;;;3.00;1.00;;;;;;5093648;28;20517;-69
2021/01/27 02:30:51;;;;;;;8.98;4.07;;;3.10;1.00;;;;;;5092915;28;20195;-69
2021/01/27 02:33:19;;;;;;;10.02;4.75;;;2.90;1.00;;;;;;5093058;28;20160;-70
2021/01/27 02:35:54;;;;;;;4.38;3.85;;;3.00;1.00;;;;;;5092995;28;20160;-69
2021/01/27 02:38:32;;;;;;;5.43;4.20;;;2.90;1.00;;;;;;5096775;28;20151;-70
2021/01/27 02:41:17;;;;;;;7.00;4.68;;;2.90;1.00;;;;;;5097287;28;20190;-68
2021/01/27 02:43:47;;;;;;;4.97;3.83;;;2.90;1.00;;;;;;5097451;28;20703;-70
2021/01/27 02:46:22;;;;;;;8.73;4.60;;;3.00;1.00;;;;;;5097267;28;20171;-69
2021/01/27 02:48:50;;;;;;;6.63;4.30;;;2.90;1.00;;;;;;5097225;28;20191;-69
2021/01/27 02:51:20;;;;;;;5.35;4.00;;;3.00;1.00;;;;;;5096821;28;20706;-68
2021/01/27 02:53:59;;;;;;;4.75;3.90;;;2.90;1.00;;;;;;5097237;28;20156;-69
2021/01/27 02:56:50;;;;;;;6.38;3.85;;;2.80;1.00;;;;;;5097487;28;20628;-69
2021/01/27 02:59:30;;;;;;;5.80;4.97;;;2.90;1.00;;;;;;5097034;28;20624;-69
2021/01/27 03:02:14;;;;;;;5.63;4.20;;;2.90;1.00;;;;;;5096993;28;20151;-67
2021/01/27 03:04:47;;;;;;;8.10;4.85;;;2.90;1.00;;;;;;5096635;28;20160;-68
2021/01/27 03:07:14;;;;;;;7.18;4.07;;;2.90;1.00;;;;;;5095073;28;20186;-68
2021/01/27 03:09:49;;;;;;;5.20;4.20;;;3.00;1.00;;;;;;5096550;28;20199;-68
2021/01/27 03:12:14;;;;;;;9.50;4.30;;;3.00;1.00;;;;;;5096594;28;20497;-68
2021/01/27 03:14:40;;;;;;;11.30;4.40;;;3.00;1.00;;;;;;5096718;28;20186;-68
2021/01/27 03:17:11;;;;;;;6.53;4.30;;;2.90;1.00;;;;;;5096748;28;20167;-68
2021/01/27 03:19:39;;;;;;;4.93;3.20;;;2.90;1.00;;;;;;5096615;28;20191;-68
2021/01/27 03:22:50;;;;;;;5.00;3.40;;;2.90;1.00;;;;;;5096414;28;20175;-68
2021/01/27 03:25:22;;;;;;;5.05;3.40;;;3.00;1.00;;;;;;5087915;28;20187;-69
2021/01/27 03:28:14;;;;;;;4.00;1.88;;;3.30;1.00;;;;;;5096598;28;20233;-68
2021/01/27 03:30:39;;;;;;;3.60;2.35;;;3.10;1.00;;;;;;5085665;28;20569;-68
2021/01/27 03:33:19;;;;;;;3.17;2.27;;;2.90;1.00;;;;;;5096231;28;20254;-68
2021/01/27 03:35:53;;;;;;;3.03;1.95;;;3.00;1.00;;;;;;5096158;28;20269;-68
2021/01/27 03:38:32;;;;;;;2.25;1.90;;;3.00;1.00;;;;;;5096343;28;20162;-68
2021/01/27 03:41:18;;;;;;;2.53;1.95;;;2.90;1.00;;;;;;5096073;28;20187;-67
2021/01/27 03:43:48;;;;;;;3.13;2.05;;;2.80;1.00;;;;;;5096005;28;20169;-68
2021/01/27 03:46:26;;;;;;;3.45;2.33;;;2.80;1.00;;;;;;5095918;28;20199;-69
2021/01/27 03:49:00;;;;;;;3.42;2.10;;;2.90;1.00;;;;;;5094662;28;20226;-69
2021/01/27 03:51:29;;;;;;;4.18;2.28;;;2.80;22.90;;;;;;5095801;28;20190;-69
2021/01/27 03:53:56;;;;;;;3.15;1.95;;;2.80;2.40;;;;;;5095734;28;20177;-69
2021/01/27 03:56:42;;;;;;;3.53;2.13;;;2.80;11.90;;;;;;5096077;28;20168;-69
2021/01/27 03:59:10;;;;;;;5.05;2.50;;;2.80;18.80;;;;;;5095582;28;20164;-68
2021/01/27 04:01:53;;;;;;;3.70;2.83;;;2.80;37.50;;;;;;5095600;28;20172;-69
2021/01/27 04:04:19;;;;;;;5.72;2.70;;;2.90;25.40;;;;;;5095571;28;20572;-68
2021/01/27 04:06:45;;;;;;;4.40;2.50;;;2.80;35.80;;;;;;5095290;28;20180;-68
2021/01/27 04:09:11;;;;;;;3.90;2.63;;;2.70;57.40;;;;;;5095391;28;20210;-68
2021/01/27 04:11:37;;;;;;;3.53;2.53;;;2.90;89.30;;;;;;5095453;28;20254;-69
2021/01/27 04:14:04;;;;;;;2.93;2.20;;;2.80;54.20;;;;;;5095337;28;20206;-69
2021/01/27 04:16:30;;;;;;;6.25;2.33;;;2.90;77.70;;;;;;5094094;28;20750;-68
2021/01/27 04:19:00;;;;;;;4.07;2.45;;;3.00;54.60;;;;;;5095269;28;20175;-69
2021/01/27 04:21:26;;;;;;;4.40;2.08;;;3.00;34.20;;;;;;5095140;28;20195;-69
2021/01/27 04:23:51;;;;;;;2.90;2.47;;;3.00;27.70;;;;;;5095127;28;20178;-68
2021/01/27 04:26:18;;;;;;;5.37;2.67;;;2.90;36.40;;;;;;5095322;28;20441;-68
2021/01/27 04:28:44;;;;;;;6.95;2.28;;;2.90;39.30;;;;;;5094971;28;20432;-69
2021/01/27 04:31:10;;;;;;;5.57;2.40;;;2.90;47.90;;;;;;5094963;28;20198;-67
2021/01/27 04:33:36;;;;;;;2.30;2.07;;;2.90;38.40;;;;;;5094966;28;20403;-69
2021/01/27 04:36:01;;;;;;;2.70;2.30;;;2.90;35.30;;;;;;5094987;28;20175;-69
2021/01/27 04:38:27;;;;;;;3.13;2.50;;;3.00;41.10;;;;;;5094925;28;20472;-69
2021/01/27 04:40:56;;;;;;;4.83;2.70;;;3.00;29.30;;;;;;5094717;28;20194;-69
2021/01/27 04:43:21;;;;;;;3.13;2.15;;;3.10;16.90;;;;;;5095043;28;20206;-68
2021/01/27 04:45:54;;;;;;;4.80;2.90;;;3.10;17.30;;;;;;5095055;28;20183;-69
2021/01/27 04:48:29;;;;;;;5.65;2.47;;;3.00;25.20;;;;;;5094916;28;20151;-69
2021/01/27 04:51:02;;;;;;;4.50;2.75;;;2.90;18.90;;;;;;5093819;28;20234;-69
2021/01/27 04:53:46;;;;;;;3.15;2.60;;;3.00;28.80;;;;;;5094833;28;20163;-69
2021/01/27 04:56:41;;;;;;;4.85;2.88;;;2.80;45.20;;;;;;5094668;28;20151;-68
2021/01/27 04:59:26;;;;;;;3.10;2.25;;;2.80;37.80;;;;;;5094566;28;20558;-69
2021/01/27 05:02:17;;;;;;;5.10;2.30;;;3.00;42.80;;;;;;5094745;28;20174;-69
2021/01/27 05:04:55;;;;;;;7.97;3.33;;;3.00;35.10;;;;;;5094318;28;20237;-69
2021/01/27 05:07:30;;;;;;;7.22;2.70;;;3.00;34.60;;;;;;5094364;28;20273;-69
2021/01/27 05:09:59;;;;;;;3.92;2.65;;;2.80;40.90;;;;;;5094432;28;20221;-69
2021/01/27 05:12:39;;;;;;;3.25;2.00;;;2.80;48.40;;;;;;5094423;28;20163;-69
2021/01/27 05:15:06;;;;;;;6.03;3.03;;;2.80;32.80;;;;;;5094493;28;20516;-69
2021/01/27 05:17:32;;;;;;;3.42;2.42;;;2.70;77.00;;;;;;5094116;28;20184;-69
2021/01/27 05:19:58;;;;;;;6.07;2.93;;;2.70;61.20;;;;;;5094027;28;20198;-69
2021/01/27 05:22:25;;;;;;;4.47;2.40;;;2.80;80.50;;;;;;5093934;28;20258;-69
2021/01/27 05:24:51;;;;;;;4.65;3.10;;;2.80;64.60;;;;;;5094269;28;20212;-69
2021/01/27 05:27:27;;;;;;;6.67;2.27;;;2.80;94.00;;;;;;5093934;28;20171;-69
2021/01/27 05:30:01;;;;;;;3.88;2.20;;;2.90;96.20;;;;;;5093910;28;20293;-68
2021/01/27 05:32:27;;;;;;;6.05;2.70;;;2.90;65.10;;;;;;5094051;28;20205;-69
2021/01/27 05:34:55;;;;;;;3.10;2.70;;;2.80;71.60;;;;;;5094148;28;20614;-69
2021/01/27 05:37:27;;;;;;;4.40;2.50;;;2.80;65.30;;;;;;5093876;28;20766;-69
2021/01/27 05:40:03;;;;;;;3.13;1.98;;;2.90;94.20;;;;;;5093799;28;20198;-68
2021/01/27 05:42:31;;;;;;;5.07;1.83;;;2.90;80.60;;;;;;5093761;28;20159;-69
2021/01/27 05:45:18;;;;;;;3.67;2.10;;;2.90;92.40;;;;;;5093644;28;20167;-69
2021/01/27 05:47:44;;;;;;;4.40;2.90;;;2.90;89.80;;;;;;5093564;28;20175;-68
2021/01/27 05:50:15;;;;;;;5.77;2.43;;;2.70;99.90;;;;;;5093436;28;20240;-68
2021/01/27 05:52:42;;;;;;;2.40;1.88;;;2.80;99.90;;;;;;5093396;28;20277;-69
2021/01/27 05:55:08;;;;;;;3.08;1.60;;;2.90;99.90;;;;;;5092531;28;20167;-69
2021/01/27 05:57:34;;;;;;;7.20;2.08;;;2.80;99.90;;;;;;5093695;28;20189;-67
2021/01/27 06:00:28;;;;;;;5.47;1.83;;;2.80;99.90;;;;;;5093205;28;20187;-69
2021/01/27 06:02:57;;;;;;;3.38;2.30;;;2.80;99.90;;;;;;5093526;28;20179;-69
2021/01/27 06:05:38;;;;;;;4.30;2.28;;;2.80;99.90;;;;;;5093148;28;20171;-69
2021/01/27 06:08:13;;;;;;;4.22;2.00;;;2.80;99.90;;;;;;5093006;28;20289;-69
2021/01/27 06:10:40;;;;;;;3.75;2.45;;;2.70;99.90;;;;;;5093145;28;20203;-69
2021/01/27 06:13:27;;;;;;;4.45;2.80;;;2.70;99.90;;;;;;5092430;28;20191;-69
2021/01/27 06:15:54;;;;;;;8.68;2.60;;;2.60;99.90;;;;;;5093629;28;20147;-68
2021/01/27 06:18:29;;;;;;;4.13;3.42;;;2.70;99.90;;;;;;5093202;28;20164;-68
2021/01/27 06:21:22;;;;;;;3.97;2.50;;;2.60;99.90;;;;;;5093054;28;20186;-69
2021/01/27 06:24:01;;;;;;;7.15;3.10;;;2.70;99.90;;;;;;5093027;28;20163;-69
2021/01/27 06:26:57;;;;;;;4.60;3.35;;;2.60;99.90;;;;;;5092873;28;20170;-68
2021/01/27 06:29:26;;;;;;;5.85;3.03;;;2.60;99.90;;;;;;5093257;28;20183;-69
2021/01/27 06:32:16;;;;;;;4.05;3.10;;;2.80;99.90;;;;;;5093245;28;20202;-68
2021/01/27 06:34:59;;;;;;;5.82;3.65;;;2.70;99.90;;;;;;5092735;28;20174;-69
2021/01/27 06:38:03;;;;;;;7.10;4.05;;;2.40;99.90;;;;;;5092975;28;20697;-68
2021/01/27 06:40:43;;;;;;;5.93;4.30;;;2.60;99.90;;;;;;5093188;28;20214;-69
2021/01/27 06:43:17;;;;;;;6.70;4.45;;;2.40;1.00;;;;;;5092576;28;20155;-69
2021/01/27 06:45:57;;;;;;;6.80;4.30;;;2.60;99.90;;;;;;5092660;28;20167;-69
2021/01/27 06:48:29;;;;;;;7.20;4.63;;;2.60;99.90;;;;;;5092603;28;20238;-69
2021/01/27 06:51:30;;;;;;;5.22;4.22;;;2.60;99.90;;;;;;5093111;28;20244;-69
2021/01/27 06:54:11;;;;;;;7.55;4.30;;;2.40;99.90;;;;;;5067080;28;20178;-69
2021/01/27 06:57:08;;;;;;;9.70;4.60;;;2.60;99.90;;;;;;5092589;28;20144;-68
2021/01/27 06:59:40;;;;;;;4.93;4.15;;;2.60;1.00;;;;;;5092731;28;20664;-68
2021/01/27 07:02:34;;;;;;;9.80;5.00;;;2.50;99.90;;;;;;5092565;28;20218;-68
2021/01/27 07:05:08;;;;;;;11.23;4.72;;;2.60;99.90;;;;;;5092456;28;20242;-68
2021/01/27 07:07:51;;;;;;;5.45;3.90;;;2.50;99.90;;;;;;5092520;28;20190;-68
2021/01/27 07:10:50;;;;;;;6.00;4.30;;;2.50;1.00;;;;;;5092866;28;20326;-69
2021/01/27 07:13:46;;;;;;;7.47;4.00;;;2.50;1.00;;;;;;5093045;28;20188;-67
2021/01/27 07:16:23;;;;;;;6.97;4.20;;;2.60;1.00;;;;;;5092500;28;20172;-68
2021/01/27 07:18:59;;;;;;;4.07;3.58;;;2.50;1.00;;;;;;5092471;28;20158;-68
2021/01/27 07:21:41;;;;;;;6.50;4.60;;;2.50;1.00;;;;;;5092761;28;20190;-68
2021/01/27 07:24:17;;;;;;;9.02;4.47;;;2.60;1.00;;;;;;5095627;28;20156;-68
2021/01/27 07:26:54;;;;;;;6.57;4.32;;;2.60;1.00;;;;;;5096612;28;20164;-68
2021/01/27 07:29:38;;;;;;;5.53;3.33;;;2.70;1.00;;;;;;5096108;28;20188;-68
2021/01/27 07:32:11;;;;;;;5.82;4.40;;;2.60;1.00;;;;;;5096439;28;20155;-68
2021/01/27 07:34:42;;;;;;;7.90;4.45;;;2.30;1.00;;;;;;5096318;28;20618;-68
2021/01/27 07:37:31;;;;;;;7.40;4.78;;;2.30;9.10;;;;;;5096495;28;20151;-68
2021/01/27 07:40:03;;;;;;;4.20;3.42;;;2.50;99.90;;;;;;5096211;28;20196;-67
2021/01/27 07:42:50;;;;;;;11.50;4.18;;;2.40;27.70;;;;;;5096217;28;20597;-68
2021/01/27 07:45:26;;;;;;;4.30;3.05;;;2.50;57.40;;;;;;5096141;28;20242;-68
2021/01/27 07:48:22;;;;;;;5.30;3.85;;;2.40;99.90;;;;;;5096210;28;20297;-68
2021/01/27 07:50:56;;;;;;;6.43;3.05;;;2.40;99.90;;;;;;5095543;28;20203;-69
2021/01/27 07:53:30;;;;;;;3.85;3.25;;;2.40;99.90;;;;;;5095704;28;20693;-68
2021/01/27 07:56:09;;;;;;;4.70;3.47;;;2.40;99.90;;;;;;5096155;28;20165;-67
2021/01/27 07:58:40;;;;;;;4.80;3.58;;;2.40;99.90;;;;;;5096012;28;20635;-67
2021/01/27 08:01:25;;;;;;;4.55;3.00;;;2.60;99.90;;;;;;5095558;28;20191;-69
2021/01/27 08:04:01;;;;;;;4.03;2.75;;;2.60;66.10;;;;;;5095861;28;20159;-68
2021/01/27 08:06:29;;;;;;;4.50;2.72;;;2.20;99.90;;;;;;5095685;28;20172;-69
2021/01/27 08:09:02;;;;;;;7.30;3.28;;;2.40;1.00;;;;;;5095724;28;20183;-69
2021/01/27 08:11:35;;;;;;;3.35;2.67;;;2.40;1.00;;;;;;5095926;28;20183;-69
2021/01/27 08:14:03;;;;;;;4.18;2.55;;;2.40;99.90;;;;;;5095490;28;20164;-68
2021/01/27 08:16:30;;;;;;;5.68;3.55;;;2.40;99.90;;;;;;5095415;28;20199;-69
2021/01/27 08:19:11;;;;;;;6.80;3.28;;;2.40;99.90;;;;;;5095096;28;20195;-69
2021/01/27 08:21:46;;;;;;;4.00;2.67;;;2.30;1.00;;;;;;5095386;28;20167;-69
2021/01/27 08:24:39;;;;;;;3.78;2.72;;;2.40;1.00;;;;;;5094928;28;20171;-68
2021/01/27 08:27:14;;;;;;;6.18;3.33;;;2.40;99.90;;;;;;5095427;28;20171;-68
2021/01/27 08:29:54;;;;;;;4.10;2.38;;;2.40;99.90;;;;;;5095066;28;20290;-69
2021/01/27 08:32:23;;;;;;;2.67;2.20;;;2.40;99.90;;;;;;5095368;28;20242;-66
2021/01/27 08:34:50;;;;;;;6.72;2.78;;;2.40;99.90;;;;;;5094588;28;20194;-69
2021/01/27 08:37:22;;;;;;;2.75;2.47;;;2.50;1.00;;;;;;5095015;28;20167;-69
2021/01/27 08:40:01;;;;;;;4.18;2.60;;;2.50;89.60;;;;;;5095006;28;20551;-68
2021/01/27 08:42:37;;;;;;;6.65;3.67;;;2.50;1.00;;;;;;5094791;28;20177;-69
2021/01/27 08:45:19;;;;;;;8.07;3.67;;;2.60;18.10;;;;;;5094592;28;20163;-69
2021/01/27 08:47:45;;;;;;;3.20;2.38;;;2.60;1.00;;;;;;5095006;28;20160;-69
2021/01/27 08:50:52;;;;;;;3.55;2.20;;;2.50;1.00;;;;;;5094158;28;20199;-68
2021/01/27 08:53:20;;;;;;;3.35;2.83;;;2.40;1.00;;;;;;5094600;28;20223;-69
2021/01/27 08:55:46;;;;;;;4.45;2.40;;;2.50;99.90;;;;;;5094741;28;20186;-68
2021/01/27 08:58:22;;;;;;;5.13;2.67;;;2.50;99.90;;;;;;5094531;28;20164;-68
2021/01/27 09:00:49;;;;;;;3.85;2.40;;;2.50;99.90;;;;;;5094648;28;20194;-69
2021/01/27 09:03:39;;;;;;;3.60;2.40;;;2.50;99.90;;;;;;5094200;28;20176;-69
2021/01/27 09:06:06;;;;;;;3.92;2.53;;;2.50;99.90;;;;;;5094656;28;20536;-69
2021/01/27 09:08:34;;;;;;;4.13;2.65;;;2.70;99.90;;;;;;5094174;28;20214;-69
2021/01/27 09:11:07;;;;;;;3.38;2.20;;;2.80;99.90;;;;;;5094737;28;20215;-69
2021/01/27 09:13:41;;;;;;;6.50;2.40;;;2.70;1.00;;;;;;5094287;28;20239;-69
2021/01/27 09:16:14;;;;;;;4.15;3.08;;;2.80;1.00;;;;;;5094278;28;20141;-68
2021/01/27 09:18:41;;;;;;;3.72;2.15;;;2.60;99.90;;;;;;5094290;28;20164;-69
2021/01/27 09:21:12;;;;;;;2.55;2.03;;;2.70;1.00;;;;;;5093957;28;20183;-69
2021/01/27 09:23:38;;;;;;;2.83;2.05;;;2.60;99.90;;;;;;5094713;28;20160;-69
2021/01/27 09:26:16;;;;;;;3.55;2.10;;;2.70;99.90;;;;;;5094363;28;20171;-69
2021/01/27 09:28:42;;;;;;;2.97;1.80;;;2.70;99.90;;;;;;5102040;28;20162;-69
2021/01/27 09:31:27;;;;;;;2.60;2.07;;;2.80;99.90;;;;;;5094241;28;20187;-68
2021/01/27 09:33:53;;;;;;;4.43;2.00;;;2.80;30.50;;;;;;5094089;28;20833;-68
2021/01/27 09:36:23;;;;;;;5.07;2.30;;;2.80;99.90;;;;;;5092655;28;20174;-68
2021/01/27 09:38:50;;;;;;;3.97;1.95;;;2.90;99.90;;;;;;5093878;28;20160;-69
2021/01/27 09:41:23;;;;;;;2.80;2.20;;;2.60;1.00;;;;;;5093756;28;20200;-69
2021/01/27 09:43:49;;;;;;;2.15;1.80;;;2.60;25.20;;;;;;5093345;28;20160;-68
2021/01/27 09:46:17;;;;;;;3.63;2.00;;;2.70;99.90;;;;;;5092803;28;20687;-68
2021/01/27 09:48:43;;;;;;;2.97;2.13;;;2.90;1.00;;;;;;5093213;28;20513;-68
2021/01/27 09:51:13;;;;;;;2.53;2.30;;;2.80;1.00;;;;;;5093509;28;20730;-69
2021/01/27 09:53:39;;;;;;;10.23;3.47;;;2.90;1.00;;;;;;5093492;28;20567;-69
2021/01/27 09:56:07;;;;;;;2.20;1.87;;;2.90;1.00;;;;;;5093246;28;20176;-68
2021/01/27 09:58:37;;;;;;;2.70;2.28;;;3.00;1.00;;;;;;5093638;28;20419;-69
2021/01/27 10:01:05;;;;;;;5.47;2.35;;;3.10;99.90;;;;;;5093361;28;20193;-69
2021/01/27 10:03:54;;;;;;;10.18;2.72;;;3.00;99.90;;;;;;5093307;28;20174;-69
2021/01/27 10:06:32;;;;;;;2.72;2.00;;;3.00;73.60;;;;;;5093290;28;20148;-68
2021/01/27 10:08:59;;;;;;;4.70;2.53;;;3.10;99.90;;;;;;5093125;28;20278;-69
2021/01/27 10:11:29;;;;;;;3.97;2.30;;;3.20;99.90;;;;;;5092967;28;20245;-68
2021/01/27 10:14:02;;;;;;;2.95;2.65;;;3.10;1.00;;;;;;5093531;28;20187;-67
2021/01/27 10:16:28;;;;;;;3.45;2.85;;;3.20;55.80;;;;;;5093235;28;20221;-69
2021/01/27 10:19:04;;;;;;;2.47;2.27;;;3.10;95.30;;;;;;5093519;28;20160;-68
2021/01/27 10:21:30;;;;;;;5.97;3.17;;;3.10;99.90;;;;;;5092822;28;20512;-68
2021/01/27 10:23:55;;;;;;;3.90;3.20;;;3.20;1.00;;;;;;5093129;28;20259;-67
2021/01/27 10:26:41;;;;;;;3.60;2.73;;;3.40;1.00;;;;;;5091788;28;20410;-68
2021/01/27 10:29:11;;;;;;;2.90;2.60;;;3.40;15.30;;;;;;5093001;28;20191;-68
2021/01/27 10:31:38;;;;;;;12.20;4.38;;;3.30;1.00;;;;;;5093105;28;20187;-67
2021/01/27 10:34:03;;;;;;;9.27;5.80;;;3.30;99.90;;;;;;5093572;28;20171;-69
2021/01/27 10:36:38;;;;;;;3.47;2.73;;;3.30;99.90;;;;;;5093285;28;20228;-69
2021/01/27 10:39:23;;;;;;;5.95;3.75;;;3.50;99.90;;;;;;5093207;28;20254;-69
2021/01/27 10:41:54;;;;;;;3.60;2.47;;;3.40;1.00;;;;;;5093446;28;20228;-68
2021/01/27 10:44:33;;;;;;;2.78;2.30;;;3.30;99.90;;;;;;5092907;28;20163;-69
2021/01/27 10:47:15;;;;;;;2.90;2.25;;;3.40;1.00;;;;;;5093137;28;20190;-68
2021/01/27 10:49:43;;;;;;;5.28;3.20;;;3.40;1.00;;;;;;5092705;28;20198;-68
2021/01/27 10:52:22;;;;;;;7.88;2.63;;;3.40;1.00;;;;;;5093097;28;20243;-68
2021/01/27 10:54:51;;;;;;;2.80;2.10;;;3.30;99.90;;;;;;5092865;28;20277;-68
2021/01/27 10:57:19;;;;;;;4.18;2.22;;;3.40;1.00;;;;;;5092893;28;20210;-66
2021/01/27 10:59:45;;;;;;;3.22;2.92;;;3.40;99.90;;;;;;5096850;28;20194;-68
2021/01/27 11:02:10;;;;;;;2.63;2.00;;;3.40;1.00;;;;;;5097645;28;20167;-68
2021/01/27 11:04:36;;;;;;;4.80;2.70;;;3.50;1.00;;;;;;5096622;28;20224;-68
2021/01/27 11:07:01;;;;;;;3.33;2.17;;;3.60;99.90;;;;;;5096806;28;20214;-69
2021/01/27 11:09:27;;;;;;;5.73;4.00;;;3.50;75.30;;;;;;5096740;28;20214;-68
2021/01/27 11:11:53;;;;;;;8.53;5.00;;;3.50;1.00;;;;;;5096765;28;20178;-69
2021/01/27 11:14:22;;;;;;;8.13;3.03;;;3.50;99.90;;;;;;5097018;28;20380;-67
2021/01/27 11:16:47;;;;;;;10.45;4.68;;;3.70;99.90;;;;;;5096548;28;20163;-68
2021/01/27 11:19:13;;;;;;;4.73;3.80;;;3.70;60.00;;;;;;5096507;28;20167;-70
2021/01/27 11:21:39;;;;;;;3.90;3.10;;;3.70;99.90;;;;;;5097003;28;20436;-68
2021/01/27 11:24:06;;;;;;;6.20;3.28;;;3.50;99.90;;;;;;5097427;28;20172;-68
2021/01/27 11:26:32;;;;;;;2.58;2.17;;;3.50;99.90;;;;;;5097281;28;20216;-69
2021/01/27 11:28:57;;;;;;;4.73;2.03;;;3.70;1.00;;;;;;5096532;28;20719;-69
2021/01/27 11:31:25;;;;;;;3.13;2.57;;;3.40;1.00;;;;;;5096148;28;20186;-70
2021/01/27 11:33:50;;;;;;;3.55;2.65;;;3.40;99.90;;;;;;5096485;28;20160;-68
2021/01/27 11:36:19;;;;;;;2.80;2.47;;;3.60;99.90;;;;;;5096293;28;20167;-69
2021/01/27 11:38:46;;;;;;;2.58;2.38;;;3.80;99.90;;;;;;5096414;28;20182;-69
2021/01/27 11:41:12;;;;;;;9.40;5.53;;;3.90;1.00;;;;;;5096088;28;20290;-68
2021/01/27 11:43:41;;;;;;;7.65;4.25;;;3.60;99.90;;;;;;5094707;28;20171;-69
2021/01/27 11:46:11;;;;;;;5.82;4.03;;;3.60;99.90;;;;;;5095861;28;20242;-69
2021/01/27 11:48:37;;;;;;;4.25;3.83;;;3.70;99.90;;;;;;5095806;28;20172;-69
2021/01/27 11:51:04;;;;;;;3.53;2.27;;;3.80;99.90;;;;;;5095888;28;20575;-69
2021/01/27 11:53:30;;;;;;;6.43;3.03;;;4.00;1.00;;;;;;5095840;28;20769;-69
2021/01/27 11:55:56;;;;;;;3.43;2.60;;;4.00;1.00;;;;;;5095864;28;20183;-70
2021/01/27 11:58:22;;;;;;;12.40;4.18;;;3.70;1.00;;;;;;5096701;28;20607;-70
2021/01/27 12:00:48;;;;;;;4.60;2.97;;;3.90;1.00;;;;;;5095781;28;20197;-68
2021/01/27 12:03:13;;;;;;;5.50;3.53;;;3.90;1.00;;;;;;5095521;28;20172;-70
2021/01/27 12:05:39;;;;;;;5.30;2.30;;;3.90;99.90;;;;;;5095530;28;20362;-68
2021/01/27 12:08:05;;;;;;;2.97;2.20;;;4.00;1.00;;;;;;5094628;28;20678;-68
2021/01/27 12:10:31;;;;;;;2.65;2.30;;;3.90;1.00;;;;;;5094478;28;20224;-67
2021/01/27 12:12:56;;;;;;;3.47;2.53;;;3.90;99.90;;;;;;5095593;28;20163;-68
2021/01/27 12:15:23;;;;;;;4.27;2.20;;;4.00;99.90;;;;;;5095610;28;20588;-68
2021/01/27 12:17:49;;;;;;;3.83;2.65;;;3.90;1.00;;;;;;5095865;28;20196;-68
2021/01/27 12:20:16;;;;;;;2.83;2.30;;;4.00;99.90;;;;;;5095419;28;20194;-69
2021/01/27 12:22:41;;;;;;;4.88;2.63;;;3.90;99.90;;;;;;5096068;28;20164;-68
2021/01/27 12:25:08;;;;;;;3.63;1.73;;;3.90;1.00;;;;;;5095162;28;20166;-68
2021/01/27 12:27:33;;;;;;;5.82;4.30;;;4.00;99.90;;;;;;5095387;28;20175;-68
2021/01/27 12:29:59;;;;;;;3.10;2.17;;;3.80;1.00;;;;;;5094901;28;20203;-68
2021/01/27 12:32:25;;;;;;;7.17;3.50;;;3.90;50.90;;;;;;5095163;28;20172;-68
2021/01/27 12:34:50;;;;;;;2.20;1.73;;;4.00;99.90;;;;;;5095110;28;20199;-69
2021/01/27 12:37:16;;;;;;;3.20;2.40;;;3.90;99.90;;;;;;5094876;28;20168;-69
2021/01/27 12:39:41;;;;;;;3.70;2.40;;;3.90;99.90;;;;;;5094971;28;20222;-68
2021/01/27 12:42:07;;;;;;;3.53;2.37;;;4.00;99.90;;;;;;5095270;28;20163;-68
2021/01/27 12:44:34;;;;;;;3.20;2.33;;;3.80;99.90;;;;;;5094548;28;20178;-69
2021/01/27 12:47:00;;;;;;;2.88;2.17;;;4.00;99.90;;;;;;5094971;28;20197;-68
2021/01/27 12:49:25;;;;;;;3.80;2.40;;;4.10;1.00;;;;;;5094686;28;20744;-69
2021/01/27 12:51:51;;;;;;;2.53;2.20;;;3.90;1.00;;;;;;5094537;28;20174;-69
2021/01/27 12:54:17;;;;;;;3.10;2.10;;;3.90;99.90;;;;;;5094564;28;20640;-69
2021/01/27 12:56:42;;;;;;;3.83;2.37;;;3.70;99.90;;;;;;5094492;28;20523;-67
2021/01/27 12:59:08;;;;;;;5.53;2.07;;;3.90;99.90;;;;;;5094701;28;20883;-70
2021/01/27 13:01:34;;;;;;;1.83;1.60;;;4.00;18.40;;;;;;5094433;28;20183;-69
2021/01/27 13:04:00;;;;;;;2.58;2.03;;;4.10;1.00;;;;;;5094911;28;20194;-68
2021/01/27 13:06:25;;;;;;;3.60;2.60;;;4.20;99.90;;;;;;5093920;28;20171;-68
2021/01/27 13:08:51;;;;;;;4.13;3.30;;;4.20;99.90;;;;;;5094761;28;20613;-68
2021/01/27 13:11:17;;;;;;;2.20;2.00;;;4.10;1.00;;;;;;5093981;28;20473;-67
2021/01/27 13:13:42;;;;;;;2.50;1.97;;;4.10;99.90;;;;;;5094471;28;20240;-69
2021/01/27 13:16:08;;;;;;;2.33;2.13;;;4.10;1.00;;;;;;5094502;28;20164;-69
2021/01/27 13:18:33;;;;;;;3.13;2.57;;;4.00;99.90;;;;;;5093973;28;20175;-68
2021/01/27 13:21:01;;;;;;;5.20;4.53;;;4.10;99.90;;;;;;5093910;28;20213;-68
2021/01/27 13:23:26;;;;;;;5.45;3.17;;;4.20;99.90;;;;;;5094121;28;20174;-68
2021/01/27 13:25:52;;;;;;;2.57;2.33;;;4.20;1.00;;;;;;5094246;28;20175;-68
2021/01/27 13:28:17;;;;;;;2.87;2.67;;;4.20;1.00;;;;;;5092532;28;20228;-69